sensor_id;sensor_type;location;lat;lon;timestamp;P1;durP1;ratioP1;P2;durP2;ratioP2
68987;SDS011;56038;46.080;11.116;2023-03-01T00:02:50;14.85;;;8.60;;
68987;SDS011;56038;46.080;11.116;2023-03-01T00:07:54;13.25;;;8.68;;
68987;SDS011;56038;46.080;11.116;2023-03-01T00:13:04;13.20;;;9.07;;
68987;SDS011;56038;46.080;11.116;2023-03-01T00:18:06;16.35;;;9.15;;
68987;SDS011;56038;46.080;11.116;2023-03-01T00:23:08;16.52;;;9.77;;
68987;SDS011;56038;46.080;11.116;2023-03-01T00:28:12;16.55;;;9.50;;
68987;SDS011;56038;46.080;11.116;2023-03-01T00:33:14;16.10;;;10.40;;
68987;SDS011;56038;46.080;11.116;2023-03-01T00:38:16;17.08;;;10.70;;
68987;SDS011;56038;46.080;11.116;2023-03-01T00:43:19;16.52;;;9.48;;
68987;SDS011;56038;46.080;11.116;2023-03-01T00:48:21;14.98;;;10.02;;
68987;SDS011;56038;46.080;11.116;2023-03-01T00:53:23;12.73;;;8.93;;
68987;SDS011;56038;46.080;11.116;2023-03-01T00:58:26;14.98;;;9.90;;
68987;SDS011;56038;46.080;11.116;2023-03-01T01:03:28;12.43;;;7.88;;
68987;SDS011;56038;46.080;11.116;2023-03-01T01:08:32;13.35;;;8.38;;
68987;SDS011;56038;46.080;11.116;2023-03-01T01:13:43;12.15;;;7.95;;
68987;SDS011;56038;46.080;11.116;2023-03-01T01:18:46;12.05;;;8.38;;
68987;SDS011;56038;46.080;11.116;2023-03-01T01:23:48;13.98;;;8.73;;
68987;SDS011;56038;46.080;11.116;2023-03-01T01:28:51;13.45;;;8.48;;
68987;SDS011;56038;46.080;11.116;2023-03-01T01:33:54;12.32;;;7.90;;
68987;SDS011;56038;46.080;11.116;2023-03-01T01:38:56;16.48;;;10.40;;
68987;SDS011;56038;46.080;11.116;2023-03-01T01:49:25;14.73;;;8.95;;
68987;SDS011;56038;46.080;11.116;2023-03-01T01:54:31;12.82;;;8.55;;
68987;SDS011;56038;46.080;11.116;2023-03-01T01:59:42;11.02;;;7.72;;
68987;SDS011;56038;46.080;11.116;2023-03-01T02:04:47;11.70;;;8.07;;
68987;SDS011;56038;46.080;11.116;2023-03-01T02:09:51;11.27;;;7.70;;
68987;SDS011;56038;46.080;11.116;2023-03-01T02:14:55;12.70;;;7.60;;
68987;SDS011;56038;46.080;11.116;2023-03-01T02:20:02;12.68;;;8.02;;
68987;SDS011;56038;46.080;11.116;2023-03-01T02:25:23;11.63;;;7.82;;
68987;SDS011;56038;46.080;11.116;2023-03-01T02:30:29;12.77;;;7.97;;
68987;SDS011;56038;46.080;11.116;2023-03-01T02:35:32;9.98;;;7.43;;
68987;SDS011;56038;46.080;11.116;2023-03-01T02:40:38;11.35;;;7.20;;
68987;SDS011;56038;46.080;11.116;2023-03-01T02:45:47;10.88;;;6.88;;
68987;SDS011;56038;46.080;11.116;2023-03-01T02:50:56;11.07;;;7.22;;
68987;SDS011;56038;46.080;11.116;2023-03-01T02:56:08;13.57;;;8.00;;
68987;SDS011;56038;46.080;11.116;2023-03-01T03:01:14;12.98;;;7.78;;
68987;SDS011;56038;46.080;11.116;2023-03-01T03:06:16;13.30;;;7.38;;
68987;SDS011;56038;46.080;11.116;2023-03-01T03:11:17;11.32;;;7.97;;
68987;SDS011;56038;46.080;11.116;2023-03-01T03:16:20;11.68;;;6.50;;
68987;SDS011;56038;46.080;11.116;2023-03-01T03:21:22;9.85;;;6.53;;
68987;SDS011;56038;46.080;11.116;2023-03-01T03:26:24;10.18;;;7.07;;
68987;SDS011;56038;46.080;11.116;2023-03-01T03:31:27;8.90;;;6.43;;
68987;SDS011;56038;46.080;11.116;2023-03-01T03:36:29;13.45;;;7.55;;
68987;SDS011;56038;46.080;11.116;2023-03-01T03:41:31;12.30;;;8.10;;
68987;SDS011;56038;46.080;11.116;2023-03-01T03:46:37;11.40;;;7.82;;
68987;SDS011;56038;46.080;11.116;2023-03-01T03:51:38;10.25;;;7.00;;
68987;SDS011;56038;46.080;11.116;2023-03-01T03:56:40;11.00;;;7.05;;
68987;SDS011;56038;46.080;11.116;2023-03-01T04:01:45;10.45;;;7.10;;
68987;SDS011;56038;46.080;11.116;2023-03-01T04:06:47;10.77;;;7.45;;
68987;SDS011;56038;46.080;11.116;2023-03-01T04:11:49;9.02;;;6.53;;
68987;SDS011;56038;46.080;11.116;2023-03-01T04:16:52;11.38;;;6.85;;
68987;SDS011;56038;46.080;11.116;2023-03-01T04:21:54;10.65;;;7.43;;
68987;SDS011;56038;46.080;11.116;2023-03-01T04:26:56;12.00;;;8.18;;
68987;SDS011;56038;46.080;11.116;2023-03-01T04:31:59;9.50;;;6.50;;
68987;SDS011;56038;46.080;11.116;2023-03-01T04:37:01;11.68;;;7.00;;
68987;SDS011;56038;46.080;11.116;2023-03-01T04:42:03;11.02;;;7.18;;
68987;SDS011;56038;46.080;11.116;2023-03-01T04:47:06;11.25;;;7.50;;
68987;SDS011;56038;46.080;11.116;2023-03-01T04:52:08;10.90;;;7.07;;
68987;SDS011;56038;46.080;11.116;2023-03-01T04:57:09;14.57;;;8.15;;
68987;SDS011;56038;46.080;11.116;2023-03-01T05:02:13;12.57;;;8.02;;
68987;SDS011;56038;46.080;11.116;2023-03-01T05:07:15;10.73;;;7.60;;
68987;SDS011;56038;46.080;11.116;2023-03-01T05:12:19;12.65;;;7.45;;
68987;SDS011;56038;46.080;11.116;2023-03-01T05:17:22;14.00;;;7.97;;
68987;SDS011;56038;46.080;11.116;2023-03-01T05:22:24;16.75;;;8.63;;
68987;SDS011;56038;46.080;11.116;2023-03-01T05:27:26;11.73;;;7.55;;
68987;SDS011;56038;46.080;11.116;2023-03-01T05:32:30;10.18;;;6.63;;
68987;SDS011;56038;46.080;11.116;2023-03-01T05:37:32;11.10;;;7.85;;
68987;SDS011;56038;46.080;11.116;2023-03-01T05:42:35;15.63;;;8.50;;
68987;SDS011;56038;46.080;11.116;2023-03-01T05:47:39;34.28;;;15.90;;
68987;SDS011;56038;46.080;11.116;2023-03-01T05:52:43;15.05;;;9.05;;
68987;SDS011;56038;46.080;11.116;2023-03-01T05:57:46;10.70;;;7.90;;
68987;SDS011;56038;46.080;11.116;2023-03-01T06:02:50;9.75;;;6.57;;
68987;SDS011;56038;46.080;11.116;2023-03-01T06:07:52;10.35;;;6.20;;
68987;SDS011;56038;46.080;11.116;2023-03-01T06:13:01;13.35;;;6.57;;
68987;SDS011;56038;46.080;11.116;2023-03-01T06:18:04;6.90;;;5.05;;
68987;SDS011;56038;46.080;11.116;2023-03-01T06:23:06;9.98;;;6.28;;
68987;SDS011;56038;46.080;11.116;2023-03-01T06:28:08;9.23;;;6.18;;
68987;SDS011;56038;46.080;11.116;2023-03-01T06:33:11;10.35;;;6.28;;
68987;SDS011;56038;46.080;11.116;2023-03-01T06:38:13;11.52;;;7.15;;
68987;SDS011;56038;46.080;11.116;2023-03-01T06:43:17;9.60;;;6.47;;
68987;SDS011;56038;46.080;11.116;2023-03-01T06:48:20;10.90;;;7.15;;
68987;SDS011;56038;46.080;11.116;2023-03-01T06:53:22;8.60;;;5.30;;
68987;SDS011;56038;46.080;11.116;2023-03-01T06:58:27;8.05;;;4.90;;
68987;SDS011;56038;46.080;11.116;2023-03-01T07:03:30;9.13;;;5.78;;
68987;SDS011;56038;46.080;11.116;2023-03-01T07:08:32;9.57;;;5.90;;
68987;SDS011;56038;46.080;11.116;2023-03-01T07:13:33;8.00;;;5.97;;
68987;SDS011;56038;46.080;11.116;2023-03-01T07:18:36;7.18;;;4.97;;
68987;SDS011;56038;46.080;11.116;2023-03-01T07:23:38;5.82;;;4.68;;
68987;SDS011;56038;46.080;11.116;2023-03-01T07:28:40;14.68;;;6.90;;
68987;SDS011;56038;46.080;11.116;2023-03-01T07:33:43;6.50;;;5.05;;
68987;SDS011;56038;46.080;11.116;2023-03-01T07:38:45;8.18;;;5.40;;
68987;SDS011;56038;46.080;11.116;2023-03-01T07:43:47;11.50;;;5.47;;
68987;SDS011;56038;46.080;11.116;2023-03-01T07:48:50;9.85;;;4.53;;
68987;SDS011;56038;46.080;11.116;2023-03-01T07:53:51;6.65;;;4.57;;
68987;SDS011;56038;46.080;11.116;2023-03-01T07:58:53;5.38;;;3.78;;
68987;SDS011;56038;46.080;11.116;2023-03-01T08:03:57;6.25;;;4.78;;
68987;SDS011;56038;46.080;11.116;2023-03-01T08:08:59;6.57;;;4.45;;
68987;SDS011;56038;46.080;11.116;2023-03-01T08:14:01;4.68;;;3.70;;
68987;SDS011;56038;46.080;11.116;2023-03-01T08:19:05;5.18;;;4.25;;
68987;SDS011;56038;46.080;11.116;2023-03-01T08:24:07;5.10;;;3.45;;
68987;SDS011;56038;46.080;11.116;2023-03-01T08:29:10;7.03;;;3.58;;
68987;SDS011;56038;46.080;11.116;2023-03-01T08:34:14;4.80;;;3.15;;
68987;SDS011;56038;46.080;11.116;2023-03-01T08:39:17;5.43;;;3.55;;
68987;SDS011;56038;46.080;11.116;2023-03-01T08:44:20;5.82;;;3.25;;
68987;SDS011;56038;46.080;11.116;2023-03-01T08:49:23;5.65;;;3.47;;
68987;SDS011;56038;46.080;11.116;2023-03-01T08:54:25;3.75;;;2.85;;
68987;SDS011;56038;46.080;11.116;2023-03-01T08:59:27;6.55;;;3.95;;
68987;SDS011;56038;46.080;11.116;2023-03-01T09:04:31;4.03;;;2.90;;
68987;SDS011;56038;46.080;11.116;2023-03-01T09:09:33;4.25;;;3.40;;
68987;SDS011;56038;46.080;11.116;2023-03-01T09:14:35;6.75;;;3.92;;
68987;SDS011;56038;46.080;11.116;2023-03-01T09:19:39;5.63;;;3.67;;
68987;SDS011;56038;46.080;11.116;2023-03-01T09:24:41;4.22;;;3.00;;
68987;SDS011;56038;46.080;11.116;2023-03-01T09:29:43;8.52;;;3.67;;
68987;SDS011;56038;46.080;11.116;2023-03-01T09:34:46;4.60;;;2.78;;
68987;SDS011;56038;46.080;11.116;2023-03-01T09:40:05;6.22;;;3.45;;
68987;SDS011;56038;46.080;11.116;2023-03-01T09:45:18;4.45;;;3.42;;
68987;SDS011;56038;46.080;11.116;2023-03-01T09:50:35;4.35;;;3.03;;
68987;SDS011;56038;46.080;11.116;2023-03-01T09:55:41;3.67;;;2.78;;
68987;SDS011;56038;46.080;11.116;2023-03-01T10:00:46;4.78;;;3.38;;
68987;SDS011;56038;46.080;11.116;2023-03-01T10:05:54;5.38;;;3.30;;
68987;SDS011;56038;46.080;11.116;2023-03-01T10:11:01;4.38;;;3.35;;
68987;SDS011;56038;46.080;11.116;2023-03-01T10:16:05;4.75;;;3.33;;
68987;SDS011;56038;46.080;11.116;2023-03-01T10:21:17;5.15;;;3.08;;
68987;SDS011;56038;46.080;11.116;2023-03-01T10:26:23;4.40;;;2.97;;
68987;SDS011;56038;46.080;11.116;2023-03-01T10:31:45;5.43;;;2.70;;
68987;SDS011;56038;46.080;11.116;2023-03-01T10:36:50;4.32;;;2.85;;
68987;SDS011;56038;46.080;11.116;2023-03-01T10:41:55;3.88;;;3.05;;
68987;SDS011;56038;46.080;11.116;2023-03-01T10:47:01;5.15;;;3.17;;
68987;SDS011;56038;46.080;11.116;2023-03-01T10:52:16;3.25;;;2.90;;
68987;SDS011;56038;46.080;11.116;2023-03-01T10:57:24;4.25;;;2.72;;
68987;SDS011;56038;46.080;11.116;2023-03-01T11:02:30;4.80;;;2.97;;
68987;SDS011;56038;46.080;11.116;2023-03-01T11:07:36;4.65;;;2.97;;
68987;SDS011;56038;46.080;11.116;2023-03-01T11:12:48;5.53;;;3.40;;
68987;SDS011;56038;46.080;11.116;2023-03-01T11:17:52;3.83;;;2.67;;
68987;SDS011;56038;46.080;11.116;2023-03-01T11:22:57;2.65;;;2.33;;
68987;SDS011;56038;46.080;11.116;2023-03-01T11:28:03;4.07;;;3.00;;
68987;SDS011;56038;46.080;11.116;2023-03-01T11:33:11;4.82;;;3.60;;
68987;SDS011;56038;46.080;11.116;2023-03-01T11:38:21;5.03;;;3.80;;
68987;SDS011;56038;46.080;11.116;2023-03-01T11:43:26;5.10;;;4.15;;
68987;SDS011;56038;46.080;11.116;2023-03-01T11:48:38;8.82;;;4.10;;
68987;SDS011;56038;46.080;11.116;2023-03-01T11:54:01;5.70;;;4.18;;
68987;SDS011;56038;46.080;11.116;2023-03-01T11:59:19;4.68;;;4.18;;
68987;SDS011;56038;46.080;11.116;2023-03-01T12:20:56;4.40;;;2.80;;
68987;SDS011;56038;46.080;11.116;2023-03-01T12:26:07;4.90;;;3.20;;
68987;SDS011;56038;46.080;11.116;2023-03-01T12:36:56;4.47;;;2.77;;
68987;SDS011;56038;46.080;11.116;2023-03-01T12:42:16;5.82;;;4.53;;
68987;SDS011;56038;46.080;11.116;2023-03-01T12:47:27;4.97;;;4.32;;
68987;SDS011;56038;46.080;11.116;2023-03-01T12:52:43;7.25;;;4.78;;
68987;SDS011;56038;46.080;11.116;2023-03-01T12:57:51;8.55;;;6.18;;
68987;SDS011;56038;46.080;11.116;2023-03-01T13:03:00;8.55;;;6.13;;
68987;SDS011;56038;46.080;11.116;2023-03-01T13:08:19;7.25;;;5.68;;
68987;SDS011;56038;46.080;11.116;2023-03-01T13:13:30;10.32;;;6.78;;
68987;SDS011;56038;46.080;11.116;2023-03-01T13:18:32;13.68;;;7.30;;
68987;SDS011;56038;46.080;11.116;2023-03-01T13:23:35;10.50;;;6.53;;
68987;SDS011;56038;46.080;11.116;2023-03-01T13:34:02;9.43;;;4.80;;
68987;SDS011;56038;46.080;11.116;2023-03-01T13:39:26;7.00;;;5.22;;
68987;SDS011;56038;46.080;11.116;2023-03-01T13:44:33;5.57;;;4.53;;
68987;SDS011;56038;46.080;11.116;2023-03-01T13:49:41;7.28;;;4.53;;
68987;SDS011;56038;46.080;11.116;2023-03-01T13:54:45;7.72;;;5.03;;
68987;SDS011;56038;46.080;11.116;2023-03-01T13:59:49;7.97;;;5.35;;
68987;SDS011;56038;46.080;11.116;2023-03-01T14:04:55;6.57;;;3.92;;
68987;SDS011;56038;46.080;11.116;2023-03-01T14:09:58;9.60;;;4.97;;
68987;SDS011;56038;46.080;11.116;2023-03-01T14:15:04;5.88;;;3.85;;
68987;SDS011;56038;46.080;11.116;2023-03-01T14:20:17;6.20;;;4.43;;
68987;SDS011;56038;46.080;11.116;2023-03-01T14:25:28;6.25;;;4.43;;
68987;SDS011;56038;46.080;11.116;2023-03-01T14:30:36;4.22;;;3.22;;
68987;SDS011;56038;46.080;11.116;2023-03-01T14:35:40;5.75;;;3.80;;
68987;SDS011;56038;46.080;11.116;2023-03-01T14:40:41;4.47;;;3.65;;
68987;SDS011;56038;46.080;11.116;2023-03-01T14:45:48;5.25;;;3.63;;
68987;SDS011;56038;46.080;11.116;2023-03-01T14:50:54;4.97;;;3.70;;
68987;SDS011;56038;46.080;11.116;2023-03-01T14:56:12;6.70;;;5.60;;
68987;SDS011;56038;46.080;11.116;2023-03-01T15:01:18;7.53;;;4.88;;
68987;SDS011;56038;46.080;11.116;2023-03-01T15:06:22;5.55;;;3.33;;
68987;SDS011;56038;46.080;11.116;2023-03-01T15:11:26;4.93;;;3.75;;
68987;SDS011;56038;46.080;11.116;2023-03-01T15:16:34;5.95;;;3.80;;
68987;SDS011;56038;46.080;11.116;2023-03-01T15:21:46;5.18;;;3.95;;
68987;SDS011;56038;46.080;11.116;2023-03-01T15:26:51;5.25;;;3.97;;
68987;SDS011;56038;46.080;11.116;2023-03-01T15:31:59;4.57;;;3.10;;
68987;SDS011;56038;46.080;11.116;2023-03-01T15:42:11;6.00;;;3.95;;
68987;SDS011;56038;46.080;11.116;2023-03-01T15:47:25;8.65;;;5.13;;
68987;SDS011;56038;46.080;11.116;2023-03-01T15:52:32;5.72;;;3.72;;
68987;SDS011;56038;46.080;11.116;2023-03-01T15:57:39;8.40;;;5.13;;
68987;SDS011;56038;46.080;11.116;2023-03-01T16:02:42;11.00;;;4.40;;
68987;SDS011;56038;46.080;11.116;2023-03-01T16:07:45;5.55;;;4.30;;
68987;SDS011;56038;46.080;11.116;2023-03-01T16:12:47;6.75;;;5.25;;
68987;SDS011;56038;46.080;11.116;2023-03-01T16:17:51;9.77;;;4.72;;
68987;SDS011;56038;46.080;11.116;2023-03-01T16:22:53;7.95;;;4.13;;
68987;SDS011;56038;46.080;11.116;2023-03-01T16:27:55;6.82;;;4.70;;
68987;SDS011;56038;46.080;11.116;2023-03-01T16:32:59;5.60;;;4.32;;
68987;SDS011;56038;46.080;11.116;2023-03-01T16:38:01;6.20;;;4.05;;
68987;SDS011;56038;46.080;11.116;2023-03-01T16:43:03;8.05;;;5.00;;
68987;SDS011;56038;46.080;11.116;2023-03-01T16:48:07;8.90;;;4.78;;
68987;SDS011;56038;46.080;11.116;2023-03-01T16:53:09;7.90;;;5.35;;
68987;SDS011;56038;46.080;11.116;2023-03-01T16:58:11;7.82;;;4.90;;
68987;SDS011;56038;46.080;11.116;2023-03-01T17:03:14;8.90;;;5.88;;
68987;SDS011;56038;46.080;11.116;2023-03-01T17:08:17;7.97;;;5.22;;
68987;SDS011;56038;46.080;11.116;2023-03-01T17:13:19;10.52;;;6.68;;
68987;SDS011;56038;46.080;11.116;2023-03-01T17:18:22;13.73;;;9.13;;
68987;SDS011;56038;46.080;11.116;2023-03-01T17:23:24;17.40;;;9.98;;
68987;SDS011;56038;46.080;11.116;2023-03-01T17:28:27;16.77;;;11.10;;
68987;SDS011;56038;46.080;11.116;2023-03-01T17:33:33;19.00;;;11.20;;
68987;SDS011;56038;46.080;11.116;2023-03-01T17:38:34;18.67;;;11.25;;
68987;SDS011;56038;46.080;11.116;2023-03-01T17:43:37;17.60;;;12.55;;
68987;SDS011;56038;46.080;11.116;2023-03-01T17:48:40;18.20;;;11.85;;
68987;SDS011;56038;46.080;11.116;2023-03-01T17:53:42;22.50;;;13.40;;
68987;SDS011;56038;46.080;11.116;2023-03-01T17:58:44;20.75;;;11.73;;
68987;SDS011;56038;46.080;11.116;2023-03-01T18:03:49;18.13;;;12.18;;
68987;SDS011;56038;46.080;11.116;2023-03-01T18:08:51;20.67;;;12.20;;
68987;SDS011;56038;46.080;11.116;2023-03-01T18:13:54;22.00;;;12.73;;
68987;SDS011;56038;46.080;11.116;2023-03-01T18:18:57;19.08;;;11.80;;
68987;SDS011;56038;46.080;11.116;2023-03-01T18:24:00;24.05;;;11.90;;
68987;SDS011;56038;46.080;11.116;2023-03-01T18:29:02;19.73;;;12.05;;
68987;SDS011;56038;46.080;11.116;2023-03-01T18:34:06;16.65;;;10.63;;
68987;SDS011;56038;46.080;11.116;2023-03-01T18:39:11;17.90;;;10.88;;
68987;SDS011;56038;46.080;11.116;2023-03-01T18:44:14;14.50;;;9.60;;
68987;SDS011;56038;46.080;11.116;2023-03-01T18:49:17;13.63;;;10.13;;
68987;SDS011;56038;46.080;11.116;2023-03-01T18:54:19;19.75;;;9.77;;
68987;SDS011;56038;46.080;11.116;2023-03-01T18:59:21;17.90;;;11.35;;
68987;SDS011;56038;46.080;11.116;2023-03-01T19:04:24;15.48;;;11.68;;
68987;SDS011;56038;46.080;11.116;2023-03-01T19:09:26;16.55;;;11.85;;
68987;SDS011;56038;46.080;11.116;2023-03-01T19:14:28;18.67;;;12.60;;
68987;SDS011;56038;46.080;11.116;2023-03-01T19:19:32;20.77;;;13.15;;
68987;SDS011;56038;46.080;11.116;2023-03-01T19:24:35;18.75;;;12.45;;
68987;SDS011;56038;46.080;11.116;2023-03-01T19:29:37;18.25;;;12.60;;
68987;SDS011;56038;46.080;11.116;2023-03-01T19:34:40;16.17;;;11.50;;
68987;SDS011;56038;46.080;11.116;2023-03-01T19:39:42;19.73;;;15.07;;
68987;SDS011;56038;46.080;11.116;2023-03-01T19:44:44;24.42;;;14.57;;
68987;SDS011;56038;46.080;11.116;2023-03-01T19:49:48;18.15;;;12.90;;
68987;SDS011;56038;46.080;11.116;2023-03-01T19:54:49;19.73;;;14.25;;
68987;SDS011;56038;46.080;11.116;2023-03-01T19:59:51;20.33;;;14.38;;
68987;SDS011;56038;46.080;11.116;2023-03-01T20:04:56;22.17;;;15.38;;
68987;SDS011;56038;46.080;11.116;2023-03-01T20:09:58;22.15;;;14.82;;
68987;SDS011;56038;46.080;11.116;2023-03-01T20:14:59;18.60;;;14.20;;
68987;SDS011;56038;46.080;11.116;2023-03-01T20:20:03;22.38;;;14.05;;
68987;SDS011;56038;46.080;11.116;2023-03-01T20:25:06;17.27;;;10.88;;
68987;SDS011;56038;46.080;11.116;2023-03-01T20:30:09;20.38;;;14.50;;
68987;SDS011;56038;46.080;11.116;2023-03-01T20:35:14;18.95;;;13.70;;
68987;SDS011;56038;46.080;11.116;2023-03-01T20:40:16;21.30;;;14.13;;
68987;SDS011;56038;46.080;11.116;2023-03-01T20:45:20;17.10;;;12.32;;
68987;SDS011;56038;46.080;11.116;2023-03-01T20:50:23;19.27;;;13.93;;
68987;SDS011;56038;46.080;11.116;2023-03-01T20:55:25;19.98;;;13.73;;
68987;SDS011;56038;46.080;11.116;2023-03-01T21:00:27;17.10;;;13.55;;
68987;SDS011;56038;46.080;11.116;2023-03-01T21:05:31;18.80;;;13.25;;
68987;SDS011;56038;46.080;11.116;2023-03-01T21:10:33;17.05;;;10.57;;
68987;SDS011;56038;46.080;11.116;2023-03-01T21:15:35;13.20;;;10.25;;
68987;SDS011;56038;46.080;11.116;2023-03-01T21:20:38;15.27;;;10.60;;
68987;SDS011;56038;46.080;11.116;2023-03-01T21:25:41;15.23;;;9.10;;
68987;SDS011;56038;46.080;11.116;2023-03-01T21:30:44;11.90;;;8.57;;
68987;SDS011;56038;46.080;11.116;2023-03-01T21:35:47;10.68;;;8.18;;
68987;SDS011;56038;46.080;11.116;2023-03-01T21:40:49;11.63;;;7.95;;
68987;SDS011;56038;46.080;11.116;2023-03-01T21:45:51;12.73;;;8.32;;
68987;SDS011;56038;46.080;11.116;2023-03-01T21:50:54;14.15;;;9.77;;
68987;SDS011;56038;46.080;11.116;2023-03-01T21:55:56;13.95;;;9.60;;
68987;SDS011;56038;46.080;11.116;2023-03-01T22:01:04;16.58;;;10.85;;
68987;SDS011;56038;46.080;11.116;2023-03-01T22:06:10;15.38;;;10.15;;
68987;SDS011;56038;46.080;11.116;2023-03-01T22:11:17;17.92;;;10.45;;
68987;SDS011;56038;46.080;11.116;2023-03-01T22:16:22;11.82;;;10.00;;
68987;SDS011;56038;46.080;11.116;2023-03-01T22:21:26;12.63;;;9.13;;
68987;SDS011;56038;46.080;11.116;2023-03-01T22:26:29;13.05;;;8.82;;
68987;SDS011;56038;46.080;11.116;2023-03-01T22:31:33;17.83;;;10.60;;
68987;SDS011;56038;46.080;11.116;2023-03-01T22:36:36;16.60;;;11.00;;
68987;SDS011;56038;46.080;11.116;2023-03-01T22:41:39;16.73;;;10.40;;
68987;SDS011;56038;46.080;11.116;2023-03-01T22:46:44;14.57;;;10.57;;
68987;SDS011;56038;46.080;11.116;2023-03-01T22:51:48;14.43;;;10.77;;
68987;SDS011;56038;46.080;11.116;2023-03-01T22:56:50;13.25;;;9.25;;
68987;SDS011;56038;46.080;11.116;2023-03-01T23:01:52;12.85;;;9.05;;
68987;SDS011;56038;46.080;11.116;2023-03-01T23:06:56;8.38;;;7.40;;
68987;SDS011;56038;46.080;11.116;2023-03-01T23:11:58;13.40;;;9.75;;
68987;SDS011;56038;46.080;11.116;2023-03-01T23:17:05;15.20;;;11.02;;
68987;SDS011;56038;46.080;11.116;2023-03-01T23:22:10;14.95;;;9.82;;
68987;SDS011;56038;46.080;11.116;2023-03-01T23:27:12;13.65;;;9.48;;
68987;SDS011;56038;46.080;11.116;2023-03-01T23:32:16;15.48;;;9.40;;
68987;SDS011;56038;46.080;11.116;2023-03-01T23:37:19;13.10;;;9.73;;
68987;SDS011;56038;46.080;11.116;2023-03-01T23:42:21;17.25;;;12.20;;
68987;SDS011;56038;46.080;11.116;2023-03-01T23:47:23;17.52;;;12.30;;
68987;SDS011;56038;46.080;11.116;2023-03-01T23:52:26;16.02;;;11.57;;
68987;SDS011;56038;46.080;11.116;2023-03-01T23:57:28;18.83;;;11.63;;
